Lord Nelson — GHJV — position and weather

sailwx.info

Track history (hours):
 
Tides and Currents Weather Stations Pressure Air Temp Water Temp Dewpoint Dewpoint Depression Visibility Wind Speed Wind Dir Waves Ship Positions

Lord Nelson (United Kingdom)

Ship's website: http://www.jst.org.uk/

Last reported at 2015-May-26 10:06 UTC. Time now 2015-May-26 13:46 UTC.
Position N 50°25' W 002°06'.

Length 54.7 m; beam 9 m; draft 4.1 m.

Type: Sailing vessel. MMSI: 232003690.

Date/timePositionNaut miles runAvg speedWind from/ knotsBaromVisibWave heightAir tempDewpointWater temp
2015-May-26 10:06N 50°25' W 002°06'4 7.6
2015-May-26 09:34N 50°29' W 002°03'8 7.9
2015-May-26 08:33N 50°36' W 001°56'1 1.3
2015-May-26 07:31N 50°37' W 001°56'0 0.0
2015-May-26 06:31N 50°37' W 001°56'0 0.0
2015-May-26 05:31N 50°37' W 001°56'0 0.0
2015-May-26 04:31N 50°37' W 001°56'0 0.0
2015-May-26 03:31N 50°37' W 001°56'0 0.0
2015-May-26 02:31N 50°37' W 001°56'0 0.0
2015-May-26 01:31N 50°37' W 001°56'0 0.0
2015-May-26 00:31N 50°37' W 001°56'0 0.0
2015-May-25 23:31N 50°37' W 001°56'0 0.0
2015-May-25 22:31N 50°37' W 001°56'0 0.0
2015-May-25 21:31N 50°37' W 001°56'0 0.0
2015-May-25 20:31N 50°37' W 001°56'0 0.0
2015-May-25 19:31N 50°37' W 001°56'5 5.5
2015-May-25 18:34N 50°42' W 001°58'1 0.8
2015-May-25 17:32N 50°43' W 001°59'0 0.0
2015-May-25 16:32N 50°43' W 001°59'0 0.0
2015-May-25 15:32N 50°43' W 001°59'0 0.0
2015-May-25 14:32N 50°43' W 001°59'0 0.0
2015-May-25 13:29N 50°43' W 001°59'0 0.0
2015-May-25 12:32N 50°43' W 001°59'0 0.0
2015-May-25 11:32N 50°43' W 001°59'0 0.0
2015-May-25 10:32N 50°43' W 001°59'0 0.0
2015-May-25 09:32N 50°43' W 001°59'0 0.0
2015-May-25 08:32N 50°43' W 001°59'0 0.0
2015-May-25 07:29N 50°43' W 001°59'0 0.0
2015-May-25 06:32N 50°43' W 001°59'0 0.0
2015-May-25 05:31N 50°43' W 001°59'0 0.0
2015-May-25 04:31N 50°43' W 001°59'0 0.0
2015-May-25 03:28N 50°43' W 001°59'0 0.0
2015-May-25 02:28N 50°43' W 001°59'0 0.0
2015-May-25 01:31N 50°43' W 001°59'0 0.0
2015-May-25 00:28N 50°43' W 001°59'0 0.0
2015-May-24 23:31N 50°43' W 001°59'0 0.0
2015-May-24 22:28N 50°43' W 001°59'0 0.0
2015-May-24 21:25N 50°43' W 001°59'0 0.0
2015-May-24 20:31N 50°43' W 001°59'0 0.0
2015-May-24 19:31N 50°43' W 001°59'0 0.0
2015-May-24 18:31N 50°43' W 001°59'0 0.0
2015-May-24 17:31N 50°43' W 001°59'0 0.0
2015-May-24 16:31N 50°43' W 001°59'0 0.0
2015-May-24 15:31N 50°43' W 001°59'1 0.7
2015-May-24 14:33N 50°42' W 001°59'5 4.6
2015-May-24 13:33N 50°40' W 001°52'2 1.7
2015-May-24 12:33N 50°42' W 001°52'4 3.6
2015-May-24 11:33N 50°38' W 001°54'4 4.1
2015-May-24 10:33N 50°35' W 001°57'4 4.0
2015-May-24 09:33N 50°38' W 001°54'5 5.3
2015-May-24 08:33N 50°43' W 001°59'0 0.2
2015-May-24 07:33N 50°43' W 001°59'0 0.0
2015-May-24 06:33N 50°43' W 001°59'0 0.0
2015-May-24 05:33N 50°43' W 001°59'0 0.0
2015-May-24 04:33N 50°43' W 001°59'0 0.0
2015-May-24 03:33N 50°43' W 001°59'0 0.0
2015-May-24 02:33N 50°43' W 001°59'0 0.0
2015-May-24 01:32N 50°43' W 001°59'0 0.0
2015-May-24 00:32N 50°43' W 001°59'0 0.0
2015-May-23 23:32N 50°43' W 001°59'0 0.0
2015-May-23 22:32N 50°43' W 001°59'0 0.0
2015-May-23 21:32N 50°43' W 001°59'0 0.0
2015-May-23 20:32N 50°43' W 001°59'0 0.0
2015-May-23 19:32N 50°43' W 001°59'0 0.0
2015-May-23 18:32N 50°43' W 001°59'0 0.0
2015-May-23 17:29N 50°43' W 001°59'0 0.0
2015-May-23 16:32N 50°43' W 001°59'0 0.0
2015-May-23 15:29N 50°43' W 001°59'0 0.5
2015-May-23 14:33N 50°42' W 001°59'5 4.5
2015-May-23 13:33N 50°41' W 001°52'3 3.3
2015-May-23 12:33N 50°41' W 001°47'2 1.5
2015-May-23 11:33N 50°42' W 001°49'2 1.7
2015-May-23 10:33N 50°41' W 001°52'3 3.1
2015-May-23 09:33N 50°39' W 001°54'5 4.7
2015-May-23 08:33N 50°43' W 001°59'0 0.2
2015-May-23 07:28N 50°43' W 001°59'0 0.0
2015-May-23 06:31N 50°43' W 001°59'0 0.0
2015-May-23 05:28N 50°43' W 001°59'0 0.0
2015-May-23 04:31N 50°43' W 001°59'0 0.0
2015-May-23 03:28N 50°43' W 001°59'0 0.0
2015-May-23 02:28N 50°43' W 001°59'0 0.0
2015-May-23 01:28N 50°43' W 001°59'0 0.0
2015-May-23 00:28N 50°43' W 001°59'0 0.0
2015-May-22 23:28N 50°43' W 001°59'0 0.0
2015-May-22 22:28N 50°43' W 001°59'0 0.0
2015-May-22 21:31N 50°43' W 001°59'0 0.0
2015-May-22 20:31N 50°43' W 001°59'0 0.0
2015-May-22 19:31N 50°43' W 001°59'0 0.0
2015-May-22 18:31N 50°43' W 001°59'0 0.0
2015-May-22 17:31N 50°43' W 001°59'0 0.0
2015-May-22 16:31N 50°43' W 001°59'0 0.0
2015-May-22 15:31N 50°43' W 001°59'0 0.0
2015-May-22 14:31N 50°43' W 001°59'0 0.0
2015-May-22 13:31N 50°43' W 001°59'0 0.0
2015-May-22 12:31N 50°43' W 001°59'0 0.0
2015-May-22 11:31N 50°43' W 001°59'0 0.0
2015-May-22 10:31N 50°43' W 001°59'4 3.7
2015-May-22 09:33N 50°40' W 001°56'2 2.4
2015-May-22 08:32N 50°38' W 001°56'0 0.0
2015-May-22 07:33N 50°37' W 001°56'0 0.0
2015-May-22 06:31N 50°37' W 001°56'0 0.0
2015-May-22 05:31N 50°37' W 001°56'0 0.0
2015-May-22 04:31N 50°37' W 001°56'0 0.0
2015-May-22 03:31N 50°37' W 001°56'0 0.0
2015-May-22 02:31N 50°37' W 001°56'0 0.0
2015-May-22 01:31N 50°37' W 001°56'0 0.0
2015-May-22 00:31N 50°37' W 001°56'0 0.0
2015-May-21 23:31N 50°37' W 001°56'0 0.0
2015-May-21 22:31N 50°37' W 001°56'0 0.0
2015-May-21 21:31N 50°37' W 001°56'0 0.1
2015-May-21 20:31N 50°37' W 001°56'0 0.3
2015-May-21 19:33N 50°37' W 001°56'6 6.4
2015-May-21 18:33N 50°31' W 001°53'5 4.7
2015-May-21 17:33N 50°26' W 001°52'5 5.3
2015-May-21 16:33N 50°21' W 001°50'11 6.9
2015-May-21 15:00N 50°12' W 001°42'22 0.4 240 / 161028.7 5.4 13.1 9.412.0
2015-May-19 13:33N 50°34' W 001°40'6 6.5
2015-May-19 12:33N 50°40' W 001°37'7 7.4
2015-May-19 11:33N 50°44' W 001°27'6 5.6
2015-May-19 10:33N 50°47' W 001°19'5 4.6
2015-May-19 09:34N 50°51' W 001°21'4 0.9
2015-May-19 05:12N 50°54' W 001°25'0 0.0
2015-May-19 01:14N 50°54' W 001°25'0 0.0
2015-May-19 00:29N 50°54' W 001°25'0 0.0
2015-May-18 09:23N 50°54' W 001°25'0 0.0
2015-May-18 07:25N 50°54' W 001°25'0 0.0
2015-May-18 06:31N 50°54' W 001°25'0 0.0
2015-May-18 05:31N 50°54' W 001°25'0 0.0
2015-May-18 04:28N 50°54' W 001°25'0 0.0
2015-May-18 01:25N 50°54' W 001°25'0 0.0
2015-May-17 23:31N 50°54' W 001°25'2 0.2
2015-May-17 14:33N 50°53' W 001°24'4 4.4
2015-May-17 13:33N 50°50' W 001°18'5 4.8
2015-May-17 12:33N 50°47' W 001°13'1 0.9
2015-May-17 11:33N 50°47' W 001°14'3 2.7
2015-May-17 10:33N 50°49' W 001°17'4 3.9
2015-May-17 09:33N 50°52' W 001°22'4 2.9
2015-May-17 08:19N 50°54' W 001°25'0 0.0
2015-May-17 07:13N 50°54' W 001°25'0 0.0
2015-May-17 05:10N 50°54' W 001°25'0 0.0
2015-May-17 04:16N 50°54' W 001°25'0 0.0
2015-May-16 15:09N 50°54' W 001°25'3 4.9
2015-May-16 14:33N 50°52' W 001°22'5 4.8
2015-May-16 13:33N 50°48' W 001°17'5 4.5
2015-May-16 12:33N 50°46' W 001°11'1 0.6
2015-May-16 11:33N 50°46' W 001°12'3 3.0
2015-May-16 10:33N 50°48' W 001°16'  
Track history (hours):
 
Tides and Currents Weather Stations Pressure Air Temp Water Temp Dewpoint Dewpoint Depression Visibility Wind Speed Wind Dir Waves Ship Positions

Lord Nelson (United Kingdom)

Ship's website: http://www.jst.org.uk/

Last reported at 2015-May-26 10:06 UTC. Time now 2015-May-26 13:46 UTC.
Position N 50°25' W 002°06'.

Length 54.7 m; beam 9 m; draft 4.1 m.

Type: Sailing vessel. MMSI: 232003690.

Date/timePositionNaut miles runAvg speedWind from/ knotsBaromVisibWave heightAir tempDewpointWater temp
2015-May-26 10:06N 50°25' W 002°06'4 7.6
2015-May-26 09:34N 50°29' W 002°03'8 7.9
2015-May-26 08:33N 50°36' W 001°56'1 1.3
2015-May-26 07:31N 50°37' W 001°56'0 0.0
2015-May-26 06:31N 50°37' W 001°56'0 0.0
2015-May-26 05:31N 50°37' W 001°56'0 0.0
2015-May-26 04:31N 50°37' W 001°56'0 0.0
2015-May-26 03:31N 50°37' W 001°56'0 0.0
2015-May-26 02:31N 50°37' W 001°56'0 0.0
2015-May-26 01:31N 50°37' W 001°56'0 0.0
2015-May-26 00:31N 50°37' W 001°56'0 0.0
2015-May-25 23:31N 50°37' W 001°56'0 0.0
2015-May-25 22:31N 50°37' W 001°56'0 0.0
2015-May-25 21:31N 50°37' W 001°56'0 0.0
2015-May-25 20:31N 50°37' W 001°56'0 0.0
2015-May-25 19:31N 50°37' W 001°56'5 5.5
2015-May-25 18:34N 50°42' W 001°58'1 0.8
2015-May-25 17:32N 50°43' W 001°59'0 0.0
2015-May-25 16:32N 50°43' W 001°59'0 0.0
2015-May-25 15:32N 50°43' W 001°59'0 0.0
2015-May-25 14:32N 50°43' W 001°59'0 0.0
2015-May-25 13:29N 50°43' W 001°59'0 0.0
2015-May-25 12:32N 50°43' W 001°59'0 0.0
2015-May-25 11:32N 50°43' W 001°59'0 0.0
2015-May-25 10:32N 50°43' W 001°59'0 0.0
2015-May-25 09:32N 50°43' W 001°59'0 0.0
2015-May-25 08:32N 50°43' W 001°59'0 0.0
2015-May-25 07:29N 50°43' W 001°59'0 0.0
2015-May-25 06:32N 50°43' W 001°59'0 0.0
2015-May-25 05:31N 50°43' W 001°59'0 0.0
2015-May-25 04:31N 50°43' W 001°59'0 0.0
2015-May-25 03:28N 50°43' W 001°59'0 0.0
2015-May-25 02:28N 50°43' W 001°59'0 0.0
2015-May-25 01:31N 50°43' W 001°59'0 0.0
2015-May-25 00:28N 50°43' W 001°59'0 0.0
2015-May-24 23:31N 50°43' W 001°59'0 0.0
2015-May-24 22:28N 50°43' W 001°59'0 0.0
2015-May-24 21:25N 50°43' W 001°59'0 0.0
2015-May-24 20:31N 50°43' W 001°59'0 0.0
2015-May-24 19:31N 50°43' W 001°59'0 0.0
2015-May-24 18:31N 50°43' W 001°59'0 0.0
2015-May-24 17:31N 50°43' W 001°59'0 0.0
2015-May-24 16:31N 50°43' W 001°59'0 0.0
2015-May-24 15:31N 50°43' W 001°59'1 0.7
2015-May-24 14:33N 50°42' W 001°59'5 4.6
2015-May-24 13:33N 50°40' W 001°52'2 1.7
2015-May-24 12:33N 50°42' W 001°52'4 3.6
2015-May-24 11:33N 50°38' W 001°54'4 4.1
2015-May-24 10:33N 50°35' W 001°57'4 4.0
2015-May-24 09:33N 50°38' W 001°54'5 5.3
2015-May-24 08:33N 50°43' W 001°59'0 0.2
2015-May-24 07:33N 50°43' W 001°59'0 0.0
2015-May-24 06:33N 50°43' W 001°59'0 0.0
2015-May-24 05:33N 50°43' W 001°59'0 0.0
2015-May-24 04:33N 50°43' W 001°59'0 0.0
2015-May-24 03:33N 50°43' W 001°59'0 0.0
2015-May-24 02:33N 50°43' W 001°59'0 0.0
2015-May-24 01:32N 50°43' W 001°59'0 0.0
2015-May-24 00:32N 50°43' W 001°59'0 0.0
2015-May-23 23:32N 50°43' W 001°59'0 0.0
2015-May-23 22:32N 50°43' W 001°59'0 0.0
2015-May-23 21:32N 50°43' W 001°59'0 0.0
2015-May-23 20:32N 50°43' W 001°59'0 0.0
2015-May-23 19:32N 50°43' W 001°59'0 0.0
2015-May-23 18:32N 50°43' W 001°59'0 0.0
2015-May-23 17:29N 50°43' W 001°59'0 0.0
2015-May-23 16:32N 50°43' W 001°59'0 0.0
2015-May-23 15:29N 50°43' W 001°59'0 0.5
2015-May-23 14:33N 50°42' W 001°59'5 4.5
2015-May-23 13:33N 50°41' W 001°52'3 3.3
2015-May-23 12:33N 50°41' W 001°47'2 1.5
2015-May-23 11:33N 50°42' W 001°49'2 1.7
2015-May-23 10:33N 50°41' W 001°52'3 3.1
2015-May-23 09:33N 50°39' W 001°54'5 4.7
2015-May-23 08:33N 50°43' W 001°59'0 0.2
2015-May-23 07:28N 50°43' W 001°59'0 0.0
2015-May-23 06:31N 50°43' W 001°59'0 0.0
2015-May-23 05:28N 50°43' W 001°59'0 0.0
2015-May-23 04:31N 50°43' W 001°59'0 0.0
2015-May-23 03:28N 50°43' W 001°59'0 0.0
2015-May-23 02:28N 50°43' W 001°59'0 0.0
2015-May-23 01:28N 50°43' W 001°59'0 0.0
2015-May-23 00:28N 50°43' W 001°59'0 0.0
2015-May-22 23:28N 50°43' W 001°59'0 0.0
2015-May-22 22:28N 50°43' W 001°59'0 0.0
2015-May-22 21:31N 50°43' W 001°59'0 0.0
2015-May-22 20:31N 50°43' W 001°59'0 0.0
2015-May-22 19:31N 50°43' W 001°59'0 0.0
2015-May-22 18:31N 50°43' W 001°59'0 0.0
2015-May-22 17:31N 50°43' W 001°59'0 0.0
2015-May-22 16:31N 50°43' W 001°59'0 0.0
2015-May-22 15:31N 50°43' W 001°59'0 0.0
2015-May-22 14:31N 50°43' W 001°59'0 0.0
2015-May-22 13:31N 50°43' W 001°59'0 0.0
2015-May-22 12:31N 50°43' W 001°59'0 0.0
2015-May-22 11:31N 50°43' W 001°59'0 0.0
2015-May-22 10:31N 50°43' W 001°59'4 3.7
2015-May-22 09:33N 50°40' W 001°56'2 2.4
2015-May-22 08:32N 50°38' W 001°56'0 0.0
2015-May-22 07:33N 50°37' W 001°56'0 0.0
2015-May-22 06:31N 50°37' W 001°56'0 0.0
2015-May-22 05:31N 50°37' W 001°56'0 0.0
2015-May-22 04:31N 50°37' W 001°56'0 0.0
2015-May-22 03:31N 50°37' W 001°56'0 0.0
2015-May-22 02:31N 50°37' W 001°56'0 0.0
2015-May-22 01:31N 50°37' W 001°56'0 0.0
2015-May-22 00:31N 50°37' W 001°56'0 0.0
2015-May-21 23:31N 50°37' W 001°56'0 0.0
2015-May-21 22:31N 50°37' W 001°56'0 0.0
2015-May-21 21:31N 50°37' W 001°56'0 0.1
2015-May-21 20:31N 50°37' W 001°56'0 0.3
2015-May-21 19:33N 50°37' W 001°56'6 6.4
2015-May-21 18:33N 50°31' W 001°53'5 4.7
2015-May-21 17:33N 50°26' W 001°52'5 5.3
2015-May-21 16:33N 50°21' W 001°50'11 6.9
2015-May-21 15:00N 50°12' W 001°42'22 0.4 240 / 161028.7 5.4 13.1 9.412.0
2015-May-19 13:33N 50°34' W 001°40'6 6.5
2015-May-19 12:33N 50°40' W 001°37'7 7.4
2015-May-19 11:33N 50°44' W 001°27'6 5.6
2015-May-19 10:33N 50°47' W 001°19'5 4.6
2015-May-19 09:34N 50°51' W 001°21'4 0.9
2015-May-19 05:12N 50°54' W 001°25'0 0.0
2015-May-19 01:14N 50°54' W 001°25'0 0.0
2015-May-19 00:29N 50°54' W 001°25'0 0.0
2015-May-18 09:23N 50°54' W 001°25'0 0.0
2015-May-18 07:25N 50°54' W 001°25'0 0.0
2015-May-18 06:31N 50°54' W 001°25'0 0.0
2015-May-18 05:31N 50°54' W 001°25'0 0.0
2015-May-18 04:28N 50°54' W 001°25'0 0.0
2015-May-18 01:25N 50°54' W 001°25'0 0.0
2015-May-17 23:31N 50°54' W 001°25'2 0.2
2015-May-17 14:33N 50°53' W 001°24'4 4.4
2015-May-17 13:33N 50°50' W 001°18'5 4.8
2015-May-17 12:33N 50°47' W 001°13'1 0.9
2015-May-17 11:33N 50°47' W 001°14'3 2.7
2015-May-17 10:33N 50°49' W 001°17'4 3.9
2015-May-17 09:33N 50°52' W 001°22'4 2.9
2015-May-17 08:19N 50°54' W 001°25'0 0.0
2015-May-17 07:13N 50°54' W 001°25'0 0.0
2015-May-17 05:10N 50°54' W 001°25'0 0.0
2015-May-17 04:16N 50°54' W 001°25'0 0.0
2015-May-16 15:09N 50°54' W 001°25'3 4.9
2015-May-16 14:33N 50°52' W 001°22'5 4.8
2015-May-16 13:33N 50°48' W 001°17'5 4.5
2015-May-16 12:33N 50°46' W 001°11'1 0.6
2015-May-16 11:33N 50°46' W 001°12'3 3.0
2015-May-16 10:33N 50°48' W 001°16'  

Dump ship's entire track history